Time;durP1;ratioP1;P1;durP2;ratioP2;P2;SDS_P1;SDS_P2;PMS_P1;PMS_P2;Temp;Humidity;BMP_temperature;BMP_pressure;BME280_temperature;BME280_humidity;BME280_pressure;Samples;Min_cycle;Max_cycle;Signal;HPM_P1;HPM_P2
2024/04/17 00:01:12;;;;;;;1.20;0.80;;;5.60;99.90;;;;;;5343461;26;20028;-66
2024/04/17 00:03:39;;;;;;;1.13;0.80;;;5.60;99.90;;;;;;5344726;26;19997;-66
2024/04/17 00:06:05;;;;;;;2.55;0.80;;;5.60;99.90;;;;;;5341262;26;20046;-66
2024/04/17 00:08:32;;;;;;;1.08;0.93;;;5.60;99.90;;;;;;5344284;26;20422;-66
2024/04/17 00:11:04;;;;;;;1.10;0.80;;;5.50;99.90;;;;;;5342865;26;20487;-66
2024/04/17 00:13:31;;;;;;;1.30;0.90;;;5.60;99.90;;;;;;5342946;26;20033;-66
2024/04/17 00:15:59;;;;;;;0.80;0.80;;;5.60;99.90;;;;;;5366371;26;20058;-66
2024/04/17 00:18:26;;;;;;;1.65;1.55;;;5.60;99.90;;;;;;5343729;26;19997;-66
2024/04/17 00:20:53;;;;;;;1.05;0.95;;;5.60;99.90;;;;;;5344462;26;20005;-66
2024/04/17 00:23:20;;;;;;;1.13;0.80;;;5.50;99.90;;;;;;5342704;26;20005;-67
2024/04/17 00:25:47;;;;;;;1.40;1.00;;;5.50;99.90;;;;;;5344419;26;20079;-68
2024/04/17 00:28:20;;;;;;;0.98;0.88;;;5.50;99.90;;;;;;5342378;26;20485;-68
2024/04/17 00:30:52;;;;;;;1.30;1.00;;;5.40;99.90;;;;;;5343902;26;20001;-68
2024/04/17 00:33:20;;;;;;;1.10;1.00;;;5.40;99.90;;;;;;5344435;26;20390;-67
2024/04/17 00:35:47;;;;;;;1.50;0.98;;;5.40;99.90;;;;;;5344402;26;20017;-67
2024/04/17 00:38:14;;;;;;;2.05;1.00;;;5.30;99.90;;;;;;5342224;26;20047;-67
2024/04/17 00:40:41;;;;;;;1.55;1.30;;;5.30;99.90;;;;;;5342368;26;20052;-67
2024/04/17 00:43:13;;;;;;;1.30;1.17;;;5.30;99.90;;;;;;5342484;26;20015;-67
2024/04/17 00:45:42;;;;;;;1.30;1.10;;;5.30;99.90;;;;;;5342744;26;20033;-67
2024/04/17 00:48:14;;;;;;;1.30;1.08;;;5.30;99.90;;;;;;5343913;26;20001;-67
2024/04/17 00:50:45;;;;;;;1.65;1.17;;;5.30;99.90;;;;;;5343957;26;20015;-67
2024/04/17 00:53:15;;;;;;;1.33;1.23;;;5.30;99.90;;;;;;5336035;26;20489;-67
2024/04/17 00:55:47;;;;;;;2.30;1.13;;;5.30;99.90;;;;;;5344001;26;20001;-67
2024/04/17 00:58:16;;;;;;;1.50;1.27;;;5.40;99.90;;;;;;5341322;26;20006;-67
2024/04/17 01:00:43;;;;;;;1.42;1.17;;;5.40;99.90;;;;;;5341180;26;20074;-67
2024/04/17 01:03:10;;;;;;;1.60;1.15;;;5.40;99.90;;;;;;5343473;26;20028;-67
2024/04/17 01:05:37;;;;;;;2.15;1.20;;;5.40;99.90;;;;;;5343045;26;20635;-67
2024/04/17 01:08:06;;;;;;;1.50;1.20;;;5.40;99.90;;;;;;5343176;26;20482;-67
2024/04/17 01:10:33;;;;;;;1.60;1.30;;;5.40;99.90;;;;;;5342978;26;20013;-67
2024/04/17 01:13:01;;;;;;;1.25;1.08;;;5.40;99.90;;;;;;5342951;26;20009;-67
2024/04/17 01:15:28;;;;;;;1.25;1.10;;;5.40;99.90;;;;;;5341356;26;20001;-67
2024/04/17 01:18:00;;;;;;;1.08;0.98;;;5.40;99.90;;;;;;5340021;26;20019;-67
2024/04/17 01:20:27;;;;;;;1.15;1.00;;;5.40;99.90;;;;;;5341001;26;20001;-67
2024/04/17 01:22:54;;;;;;;1.38;1.05;;;5.40;99.90;;;;;;5343047;26;20016;-67
2024/04/17 01:25:21;;;;;;;1.58;1.38;;;5.40;99.90;;;;;;5342852;26;20027;-67
2024/04/17 01:27:48;;;;;;;2.60;1.20;;;5.40;99.90;;;;;;5340826;26;20383;-67
2024/04/17 01:30:15;;;;;;;2.28;1.10;;;5.40;99.90;;;;;;5341952;26;20028;-67
2024/04/17 01:32:42;;;;;;;2.25;1.13;;;5.40;99.90;;;;;;5342978;26;20717;-67
2024/04/17 01:35:09;;;;;;;1.95;1.10;;;5.40;99.90;;;;;;5316660;26;20006;-67
2024/04/17 01:37:36;;;;;;;1.80;1.38;;;5.40;99.90;;;;;;5343180;26;20012;-67
2024/04/17 01:40:09;;;;;;;1.55;1.45;;;5.40;99.90;;;;;;5341254;26;20008;-67
2024/04/17 01:42:36;;;;;;;1.70;1.50;;;5.30;99.90;;;;;;5343354;26;20004;-67
2024/04/17 01:45:03;;;;;;;1.88;1.60;;;5.30;99.90;;;;;;5343278;26;20008;-67
2024/04/17 01:47:30;;;;;;;2.03;1.50;;;5.40;99.90;;;;;;5341128;26;20009;-67
2024/04/17 01:50:03;;;;;;;1.70;1.35;;;5.30;99.90;;;;;;5342894;26;20009;-67
2024/04/17 01:52:30;;;;;;;2.22;1.30;;;5.40;99.90;;;;;;5343215;26;20037;-67
2024/04/17 01:54:57;;;;;;;2.42;1.45;;;5.40;99.90;;;;;;5361557;26;20075;-67
2024/04/17 01:57:24;;;;;;;1.60;1.40;;;5.40;99.90;;;;;;5342989;26;20041;-67
2024/04/17 01:59:51;;;;;;;3.22;1.73;;;5.40;99.90;;;;;;5366675;26;19997;-67
2024/04/17 02:02:18;;;;;;;1.42;1.25;;;5.40;99.90;;;;;;5341058;26;20100;-67
2024/04/17 02:04:44;;;;;;;2.13;1.63;;;5.40;99.90;;;;;;5342437;26;20021;-67
2024/04/17 02:07:12;;;;;;;1.30;1.20;;;5.40;99.90;;;;;;5342721;26;20016;-67
2024/04/17 02:09:38;;;;;;;1.55;1.25;;;5.40;99.90;;;;;;5340520;26;20008;-67
2024/04/17 02:12:06;;;;;;;1.77;1.58;;;5.40;99.90;;;;;;5308969;26;20016;-67
2024/04/17 02:14:33;;;;;;;2.75;1.63;;;5.40;99.90;;;;;;5342778;26;20000;-67
2024/04/17 02:16:59;;;;;;;2.85;1.48;;;5.50;99.90;;;;;;5340944;26;20001;-68
2024/04/17 02:19:26;;;;;;;1.77;1.67;;;5.40;99.90;;;;;;5341988;26;20032;-67
2024/04/17 02:21:53;;;;;;;2.10;1.40;;;5.50;99.90;;;;;;5342518;26;20001;-67
2024/04/17 02:24:20;;;;;;;1.60;1.50;;;5.40;99.90;;;;;;5342793;26;20000;-67
2024/04/17 02:26:52;;;;;;;1.52;1.42;;;5.40;99.90;;;;;;5339541;26;20015;-67
2024/04/17 02:29:24;;;;;;;1.95;1.50;;;5.40;99.90;;;;;;5344834;26;20005;-67
2024/04/17 02:31:56;;;;;;;1.70;1.48;;;5.40;99.90;;;;;;5337795;26;20037;-67
2024/04/17 02:34:23;;;;;;;1.40;1.30;;;5.40;99.90;;;;;;5344283;26;20513;-67
2024/04/17 02:36:55;;;;;;;1.63;1.40;;;5.40;99.90;;;;;;5353351;26;20001;-67
2024/04/17 02:39:21;;;;;;;1.60;1.40;;;5.40;99.90;;;;;;5345443;26;20038;-67
2024/04/17 02:41:48;;;;;;;2.28;1.90;;;5.40;99.90;;;;;;5342606;26;20009;-67
2024/04/17 02:44:15;;;;;;;1.55;1.20;;;5.40;99.90;;;;;;5345688;26;20298;-67
2024/04/17 02:46:42;;;;;;;2.00;1.50;;;5.30;99.90;;;;;;5345779;26;20007;-67
2024/04/17 02:49:09;;;;;;;1.40;1.20;;;5.30;99.90;;;;;;5343767;26;20476;-67
2024/04/17 02:51:41;;;;;;;1.55;1.30;;;5.40;99.90;;;;;;5345619;26;20001;-67
2024/04/17 02:54:08;;;;;;;1.92;1.42;;;5.30;99.90;;;;;;5345780;26;20005;-67
2024/04/17 02:56:35;;;;;;;2.42;1.40;;;5.30;99.90;;;;;;5345665;26;20004;-68
2024/04/17 02:59:02;;;;;;;1.67;1.25;;;5.40;99.90;;;;;;5345099;26;20008;-67
2024/04/17 03:01:31;;;;;;;1.50;1.40;;;5.40;99.90;;;;;;5371793;26;20472;-68
2024/04/17 03:03:58;;;;;;;1.52;1.23;;;5.40;99.90;;;;;;5343701;26;20016;-68
2024/04/17 03:06:25;;;;;;;2.30;1.60;;;5.40;99.90;;;;;;5344366;26;20020;-68
2024/04/17 03:08:52;;;;;;;1.55;1.30;;;5.40;99.90;;;;;;5343365;26;20021;-67
2024/04/17 03:11:19;;;;;;;1.90;1.65;;;5.40;99.90;;;;;;5315128;26;20042;-67
2024/04/17 03:13:46;;;;;;;2.50;1.85;;;5.40;99.90;;;;;;5345237;26;20049;-67
2024/04/17 03:16:12;;;;;;;2.60;1.67;;;5.40;99.90;;;;;;5343814;26;20450;-67
2024/04/17 03:18:40;;;;;;;2.03;1.60;;;5.40;99.90;;;;;;5344784;26;20013;-67
2024/04/17 03:21:06;;;;;;;2.95;1.90;;;5.40;99.90;;;;;;5345263;26;20001;-67
2024/04/17 03:23:33;;;;;;;1.95;1.45;;;5.40;99.90;;;;;;5342541;26;20005;-67
2024/04/17 03:26:01;;;;;;;1.67;1.30;;;5.30;99.90;;;;;;5345233;26;20025;-67
2024/04/17 03:28:28;;;;;;;1.83;1.73;;;5.30;99.90;;;;;;5364706;26;20396;-68
2024/04/17 03:30:59;;;;;;;1.75;1.55;;;5.20;99.90;;;;;;5341115;26;20370;-67
2024/04/17 03:33:26;;;;;;;1.55;1.45;;;5.20;99.90;;;;;;5336441;26;20005;-68
2024/04/17 03:35:58;;;;;;;1.65;1.42;;;5.10;99.90;;;;;;5344171;26;20017;-68
2024/04/17 03:38:26;;;;;;;1.60;1.48;;;5.10;99.90;;;;;;5344945;26;20001;-68
2024/04/17 03:40:54;;;;;;;1.83;1.48;;;5.00;99.90;;;;;;5344991;26;20368;-67
2024/04/17 03:43:22;;;;;;;1.92;1.50;;;5.00;99.90;;;;;;5344876;26;20012;-69
2024/04/17 03:45:49;;;;;;;1.70;1.50;;;4.90;99.90;;;;;;5345036;26;20009;-67
2024/04/17 03:48:20;;;;;;;2.53;1.65;;;4.90;99.90;;;;;;5344758;26;20008;-67
2024/04/17 03:50:47;;;;;;;1.80;1.50;;;4.80;99.90;;;;;;5344619;26;20456;-67
2024/04/17 03:53:15;;;;;;;1.60;1.50;;;4.80;99.90;;;;;;5345061;26;20033;-67
2024/04/17 03:55:42;;;;;;;1.92;1.70;;;4.80;99.90;;;;;;5342384;26;20016;-67
2024/04/17 03:58:09;;;;;;;3.13;1.63;;;4.80;99.90;;;;;;5344679;26;20005;-67
2024/04/17 04:00:36;;;;;;;2.08;1.75;;;4.80;99.90;;;;;;5340252;26;20010;-75
2024/04/17 04:03:03;;;;;;;2.92;0.80;;;4.80;99.90;;;;;;5343291;26;20353;-67
2024/04/17 04:05:30;;;;;;;1.83;0.93;;;4.70;99.90;;;;;;5344098;26;20039;-66
2024/04/17 04:07:57;;;;;;;1.35;1.00;;;4.60;99.90;;;;;;5344740;26;20007;-68
2024/04/17 04:10:23;;;;;;;1.63;1.48;;;4.60;99.90;;;;;;5344263;26;20032;-67
2024/04/17 04:12:50;;;;;;;1.33;1.13;;;4.60;99.90;;;;;;5344236;26;20016;-67
2024/04/17 04:15:17;;;;;;;1.27;1.10;;;4.50;99.90;;;;;;5337754;26;20005;-67
2024/04/17 04:17:47;;;;;;;1.35;1.05;;;4.40;99.90;;;;;;5328334;26;20044;-68
2024/04/17 04:20:14;;;;;;;3.40;1.30;;;4.30;99.90;;;;;;5343907;26;20009;-68
2024/04/17 04:22:41;;;;;;;2.10;1.00;;;4.30;99.90;;;;;;5339750;26;20338;-67
2024/04/17 04:25:08;;;;;;;1.13;0.93;;;4.20;99.90;;;;;;5340179;26;20012;-67
2024/04/17 04:27:35;;;;;;;1.85;1.00;;;4.20;99.90;;;;;;5337282;26;20033;-67
2024/04/17 04:30:07;;;;;;;1.90;1.00;;;4.00;99.90;;;;;;5339686;26;20006;-67
2024/04/17 04:32:34;;;;;;;1.48;1.00;;;3.90;99.90;;;;;;5338482;26;20001;-67
2024/04/17 04:35:01;;;;;;;1.83;1.20;;;3.90;99.90;;;;;;5343391;26;20021;-67
2024/04/17 04:37:30;;;;;;;1.15;0.88;;;3.80;99.90;;;;;;5343685;26;20001;-67
2024/04/17 04:39:56;;;;;;;1.85;1.20;;;3.80;99.90;;;;;;5341686;26;20055;-68
2024/04/17 04:42:23;;;;;;;1.10;0.90;;;3.60;99.90;;;;;;5341820;26;20009;-67
2024/04/17 04:44:50;;;;;;;2.35;1.25;;;3.70;99.90;;;;;;5312291;26;20011;-67
2024/04/17 04:47:17;;;;;;;1.17;1.02;;;3.70;99.90;;;;;;5337559;26;20009;-67
2024/04/17 04:49:45;;;;;;;2.17;0.90;;;3.70;99.90;;;;;;5340341;26;20008;-68
2024/04/17 04:52:12;;;;;;;0.80;0.70;;;3.70;99.90;;;;;;5339552;26;20029;-68
2024/04/17 04:54:39;;;;;;;0.75;0.70;;;3.70;99.90;;;;;;5332976;26;20001;-68
2024/04/17 04:57:10;;;;;;;1.55;1.10;;;3.70;99.90;;;;;;5335121;26;20489;-68
2024/04/17 04:59:37;;;;;;;1.15;0.70;;;3.70;99.90;;;;;;5338700;26;20020;-68
2024/04/17 05:02:04;;;;;;;0.98;0.88;;;3.70;99.90;;;;;;5328567;26;20029;-68
2024/04/17 05:04:31;;;;;;;1.30;0.77;;;3.70;99.90;;;;;;5337198;26;20011;-68
2024/04/17 05:06:58;;;;;;;1.92;1.20;;;3.70;99.90;;;;;;5342428;26;20028;-68
2024/04/17 05:09:26;;;;;;;3.20;1.00;;;3.80;99.90;;;;;;5340937;26;20013;-68
2024/04/17 05:11:53;;;;;;;1.52;1.25;;;3.80;99.90;;;;;;5339788;26;20302;-68
2024/04/17 05:14:20;;;;;;;1.90;1.33;;;3.80;99.90;;;;;;5341505;26;20004;-69
2024/04/17 05:16:47;;;;;;;1.50;1.33;;;3.80;99.90;;;;;;5341600;26;20020;-68
2024/04/17 05:19:14;;;;;;;2.33;1.63;;;3.80;99.90;;;;;;5336953;26;20016;-68
2024/04/17 05:21:41;;;;;;;1.88;1.48;;;3.80;99.90;;;;;;5336064;26;20014;-67
2024/04/17 05:24:08;;;;;;;2.35;1.75;;;3.80;99.90;;;;;;5337765;26;20023;-67
2024/04/17 05:26:40;;;;;;;2.67;1.65;;;3.80;99.90;;;;;;5312760;26;20040;-67
2024/04/17 05:29:07;;;;;;;2.50;1.90;;;3.80;99.90;;;;;;5341348;26;20057;-67
2024/04/17 05:31:34;;;;;;;2.20;1.88;;;3.80;99.90;;;;;;5340911;26;20009;-67
2024/04/17 05:34:01;;;;;;;2.30;1.70;;;3.80;99.90;;;;;;5341879;26;20095;-67
2024/04/17 05:36:28;;;;;;;2.70;1.73;;;3.90;99.90;;;;;;5340600;26;20033;-67
2024/04/17 05:38:54;;;;;;;2.05;1.48;;;4.00;99.90;;;;;;5337260;26;20002;-67
2024/04/17 05:41:21;;;;;;;3.25;1.52;;;4.00;99.90;;;;;;5340917;26;20379;-67
2024/04/17 05:43:48;;;;;;;1.40;1.00;;;4.00;99.90;;;;;;5339446;26;20005;-67
2024/04/17 05:46:15;;;;;;;1.85;0.90;;;4.00;99.90;;;;;;5339386;26;20493;-67
2024/04/17 05:48:47;;;;;;;1.80;1.40;;;3.90;99.90;;;;;;5335470;26;20001;-67
2024/04/17 05:51:14;;;;;;;2.45;0.60;;;3.90;99.90;;;;;;5336885;26;20457;-67
2024/04/17 05:53:41;;;;;;;1.20;0.80;;;3.80;99.90;;;;;;5340848;26;20048;-67
2024/04/17 05:56:08;;;;;;;1.05;0.43;;;3.80;99.90;;;;;;5325032;26;20004;-67
2024/04/17 05:58:35;;;;;;;1.25;0.30;;;3.90;99.90;;;;;;5340788;26;20032;-67
2024/04/17 06:01:02;;;;;;;1.27;0.22;;;3.80;99.90;;;;;;5343332;26;20005;-67
2024/04/17 06:03:29;;;;;;;0.30;0.25;;;3.80;99.90;;;;;;5343633;26;20009;-67
2024/04/17 06:05:56;;;;;;;0.43;0.35;;;3.70;99.90;;;;;;5344269;26;20887;-67
2024/04/17 06:08:22;;;;;;;0.77;0.40;;;3.70;99.90;;;;;;5341108;26;20001;-67
2024/04/17 06:10:49;;;;;;;0.35;0.30;;;3.60;99.90;;;;;;5345892;26;20080;-67
2024/04/17 06:13:16;;;;;;;0.40;0.38;;;3.60;99.90;;;;;;5343485;26;20005;-67
2024/04/17 06:15:45;;;;;;;0.43;0.40;;;3.60;99.90;;;;;;5343661;26;20345;-68
2024/04/17 06:18:12;;;;;;;0.40;0.40;;;3.70;99.90;;;;;;5341729;26;20016;-68
2024/04/17 06:20:41;;;;;;;0.63;0.47;;;3.60;99.90;;;;;;5343861;26;20020;-68
2024/04/17 06:23:08;;;;;;;0.80;0.40;;;3.70;99.90;;;;;;5345843;26;20025;-68
2024/04/17 06:25:34;;;;;;;0.80;0.57;;;3.60;99.90;;;;;;5344601;26;20378;-68
2024/04/17 06:28:01;;;;;;;0.57;0.50;;;3.60;99.90;;;;;;5343715;26;20037;-68
2024/04/17 06:30:28;;;;;;;2.55;1.38;;;3.60;99.90;;;;;;5343650;26;20008;-68
2024/04/17 06:32:55;;;;;;;2.17;1.40;;;3.70;99.90;;;;;;5346087;26;20028;-67
2024/04/17 06:35:22;;;;;;;1.90;1.30;;;3.80;99.90;;;;;;5345975;26;20012;-68
2024/04/17 06:37:49;;;;;;;2.10;1.20;;;3.80;99.90;;;;;;5345856;26;20011;-68
2024/04/17 06:40:16;;;;;;;0.90;0.70;;;3.90;99.90;;;;;;5324482;26;20457;-68
2024/04/17 06:42:43;;;;;;;1.08;0.90;;;3.90;99.90;;;;;;5343742;26;20001;-68
2024/04/17 06:45:09;;;;;;;1.40;0.93;;;4.00;99.90;;;;;;5344385;26;19997;-68
2024/04/17 06:47:36;;;;;;;1.05;0.95;;;4.00;99.90;;;;;;5336470;26;20340;-68
2024/04/17 06:50:04;;;;;;;0.85;0.70;;;4.10;99.90;;;;;;5344515;26;20021;-68
2024/04/17 06:52:30;;;;;;;1.00;0.85;;;4.20;99.90;;;;;;5345168;26;20012;-68
2024/04/17 06:54:58;;;;;;;0.90;0.65;;;4.30;99.90;;;;;;5343441;26;20009;-68
2024/04/17 06:57:25;;;;;;;0.98;0.88;;;4.30;99.90;;;;;;5342567;26;20011;-68
2024/04/17 06:59:52;;;;;;;1.02;0.80;;;4.30;99.90;;;;;;5344890;26;19997;-68
2024/04/17 07:02:19;;;;;;;1.50;0.88;;;4.30;99.90;;;;;;5343459;26;20005;-68
2024/04/17 07:04:46;;;;;;;0.90;0.80;;;4.30;99.90;;;;;;5344708;26;20015;-68
2024/04/17 07:07:17;;;;;;;1.90;1.00;;;4.30;99.90;;;;;;5344411;26;20020;-68
2024/04/17 07:09:44;;;;;;;2.67;0.85;;;4.40;99.90;;;;;;5343848;26;20338;-69
2024/04/17 07:12:13;;;;;;;1.13;0.90;;;4.50;99.90;;;;;;5344735;26;20079;-68
2024/04/17 07:14:40;;;;;;;1.40;0.93;;;4.50;99.90;;;;;;5342989;26;19996;-68
2024/04/17 07:17:07;;;;;;;1.77;1.58;;;4.60;99.90;;;;;;5347105;26;20009;-68
2024/04/17 07:19:34;;;;;;;1.17;0.80;;;4.70;99.90;;;;;;5344683;26;20071;-68
2024/04/17 07:22:01;;;;;;;1.90;1.20;;;4.80;99.90;;;;;;5344487;26;20009;-68
2024/04/17 07:24:27;;;;;;;1.08;0.98;;;4.80;99.90;;;;;;5343086;26;20029;-69
2024/04/17 07:26:55;;;;;;;1.60;1.20;;;4.90;99.90;;;;;;5345023;26;20001;-68
2024/04/17 07:29:22;;;;;;;1.17;0.90;;;4.90;99.90;;;;;;5342798;26;20029;-68
2024/04/17 07:31:54;;;;;;;1.63;1.33;;;5.00;99.90;;;;;;5339753;26;20474;-67
2024/04/17 07:34:21;;;;;;;1.10;1.00;;;5.10;99.90;;;;;;5344876;26;20029;-68
2024/04/17 07:36:48;;;;;;;1.40;1.20;;;5.10;99.90;;;;;;5343126;26;20020;-68
2024/04/17 07:39:15;;;;;;;1.73;1.00;;;5.10;99.90;;;;;;5342764;26;20334;-68
2024/04/17 07:41:41;;;;;;;1.35;1.13;;;5.20;99.90;;;;;;5344644;26;20011;-68
2024/04/17 07:44:09;;;;;;;2.40;1.40;;;5.30;99.90;;;;;;5344524;26;20457;-68
2024/04/17 07:46:35;;;;;;;3.30;2.10;;;5.40;99.90;;;;;;5344799;26;20042;-68
2024/04/17 07:49:07;;;;;;;1.75;1.02;;;5.50;99.90;;;;;;5331564;26;20045;-68
2024/04/17 07:51:39;;;;;;;3.05;2.50;;;5.50;99.90;;;;;;5340653;26;20008;-68
2024/04/17 07:54:06;;;;;;;4.80;3.65;;;5.50;99.90;;;;;;5344902;26;20012;-68
2024/04/17 07:56:33;;;;;;;2.05;1.80;;;5.60;99.90;;;;;;5342883;26;20469;-68
2024/04/17 07:59:05;;;;;;;2.83;1.70;;;5.60;99.90;;;;;;5337009;26;20029;-68
2024/04/17 08:01:32;;;;;;;3.45;2.85;;;5.70;99.90;;;;;;5344410;26;20139;-68
2024/04/17 08:03:59;;;;;;;3.17;2.20;;;5.80;99.90;;;;;;5341741;26;20005;-68
2024/04/17 08:06:25;;;;;;;4.68;4.18;;;5.90;99.90;;;;;;5344192;26;20370;-68
2024/04/17 08:08:52;;;;;;;6.97;5.22;;;6.10;99.90;;;;;;5343899;26;20377;-68
2024/04/17 08:11:19;;;;;;;3.47;3.05;;;6.30;99.90;;;;;;5344562;26;20656;-68
2024/04/17 08:13:51;;;;;;;2.33;1.92;;;6.30;99.90;;;;;;5342762;26;20007;-68
2024/04/17 08:16:18;;;;;;;3.20;2.40;;;6.30;99.90;;;;;;5342509;26;20017;-68
2024/04/17 08:18:45;;;;;;;2.50;2.30;;;6.30;99.90;;;;;;5343551;26;20007;-68
2024/04/17 08:21:12;;;;;;;3.38;2.83;;;6.30;99.90;;;;;;5340853;26;20005;-67
2024/04/17 08:23:39;;;;;;;5.03;4.43;;;6.40;99.90;;;;;;5344149;26;20008;-68
2024/04/17 08:26:06;;;;;;;4.05;2.83;;;6.60;99.90;;;;;;5342630;26;20017;-68
2024/04/17 08:28:33;;;;;;;3.78;2.80;;;6.70;99.90;;;;;;5342173;26;20078;-68
2024/04/17 08:31:00;;;;;;;5.60;3.60;;;6.80;99.90;;;;;;5342383;26;20020;-68
2024/04/17 08:33:28;;;;;;;7.22;4.15;;;6.80;99.90;;;;;;5343917;26;20011;-67
2024/04/17 08:35:55;;;;;;;5.18;4.03;;;6.80;99.90;;;;;;5344005;26;20083;-67
2024/04/17 08:38:21;;;;;;;5.25;3.40;;;6.80;99.90;;;;;;5343827;26;20019;-67
2024/04/17 08:40:51;;;;;;;4.57;3.53;;;6.80;99.90;;;;;;5345078;26;20083;-68
2024/04/17 08:43:26;;;;;;;14.57;7.13;;;6.90;99.90;;;;;;5343669;26;20001;-67
2024/04/17 08:45:55;;;;;;;35.47;12.43;;;7.00;99.90;;;;;;5345183;26;20037;-67
2024/04/17 08:48:23;;;;;;;4.28;3.13;;;7.10;99.90;;;;;;5356971;26;20032;-68
2024/04/17 08:50:51;;;;;;;3.13;2.42;;;7.30;99.90;;;;;;5345358;26;20461;-68
2024/04/17 08:53:19;;;;;;;4.13;3.17;;;7.30;99.90;;;;;;5348664;26;20001;-68
2024/04/17 08:55:46;;;;;;;4.55;3.28;;;7.30;99.90;;;;;;5349071;26;20020;-68
2024/04/17 08:58:18;;;;;;;2.88;2.50;;;7.40;99.90;;;;;;5341939;26;20086;-67
2024/04/17 09:00:50;;;;;;;5.53;3.50;;;7.30;99.90;;;;;;5343464;26;20029;-67
2024/04/17 09:03:22;;;;;;;4.43;3.40;;;7.30;99.90;;;;;;5343348;26;20009;-68
2024/04/17 09:05:51;;;;;;;3.45;2.85;;;7.20;99.90;;;;;;5342227;26;20025;-67
2024/04/17 09:08:24;;;;;;;3.38;2.75;;;7.20;99.90;;;;;;5343423;26;20005;-67
2024/04/17 09:10:53;;;;;;;4.75;3.35;;;7.30;99.90;;;;;;5356902;26;20001;-67
2024/04/17 09:13:20;;;;;;;3.83;3.00;;;7.20;99.90;;;;;;5343436;26;20023;-68
2024/04/17 09:15:52;;;;;;;4.55;3.33;;;7.10;99.90;;;;;;5340310;26;19997;-68
2024/04/17 09:18:26;;;;;;;4.00;3.38;;;7.00;99.90;;;;;;5339929;26;20001;-68
2024/04/17 09:20:56;;;;;;;;;;;7.00;99.90;;;;;;5336699;26;20037;-68
2024/04/17 09:23:23;;;;;;;5.43;3.30;;;7.00;99.90;;;;;;5343201;26;20345;-68
2024/04/17 09:25:50;;;;;;;3.22;2.70;;;7.00;99.90;;;;;;5341655;26;20024;-68
2024/04/17 09:28:18;;;;;;;2.40;2.10;;;7.00;99.90;;;;;;5342919;26;20352;-68
2024/04/17 09:30:50;;;;;;;3.03;2.72;;;7.10;99.90;;;;;;5334535;26;20025;-68
2024/04/17 09:33:22;;;;;;;3.80;3.17;;;7.10;99.90;;;;;;5345021;26;20535;-68
2024/04/17 09:35:49;;;;;;;4.72;3.67;;;7.10;99.90;;;;;;5346812;26;20004;-68
2024/04/17 09:38:16;;;;;;;4.88;3.30;;;7.10;99.90;;;;;;5346369;26;20008;-68
2024/04/17 09:40:46;;;;;;;8.52;5.13;;;7.00;99.90;;;;;;5345543;26;20033;-67
2024/04/17 09:43:24;;;;;;;6.40;4.60;;;6.90;99.90;;;;;;5333975;26;20002;-67
2024/04/17 09:46:06;;;;;;;6.65;4.40;;;6.60;99.90;;;;;;5344315;26;19996;-68
2024/04/17 09:48:36;;;;;;;4.78;3.60;;;6.60;99.90;;;;;;5344632;26;19997;-68
2024/04/17 09:51:04;;;;;;;3.65;3.22;;;6.60;99.90;;;;;;5344682;26;20476;-68
2024/04/17 09:53:37;;;;;;;4.72;4.00;;;6.60;99.90;;;;;;5345990;26;20449;-68
2024/04/17 09:56:04;;;;;;;4.03;3.20;;;6.70;99.90;;;;;;5345919;26;20008;-68
2024/04/17 09:58:32;;;;;;;3.38;3.05;;;6.70;99.90;;;;;;5341792;26;20005;-68
2024/04/17 10:01:03;;;;;;;2.60;2.35;;;6.70;99.90;;;;;;5346225;26;20001;-68
2024/04/17 10:03:31;;;;;;;3.45;2.10;;;6.80;99.90;;;;;;5343698;26;20015;-68
2024/04/17 10:06:02;;;;;;;3.03;2.40;;;6.80;99.90;;;;;;5346060;26;19997;-68
2024/04/17 10:08:30;;;;;;;3.28;2.92;;;6.90;99.90;;;;;;5345599;26;20465;-68
2024/04/17 10:10:57;;;;;;;3.45;2.65;;;7.00;99.90;;;;;;5344751;26;20001;-68
2024/04/17 10:13:28;;;;;;;3.20;2.90;;;7.10;99.90;;;;;;5345703;26;20001;-68
2024/04/17 10:15:55;;;;;;;3.08;2.67;;;7.30;99.90;;;;;;5345879;26;20005;-67
2024/04/17 10:18:22;;;;;;;4.35;3.13;;;7.40;99.90;;;;;;5365864;26;20016;-67
2024/04/17 10:20:52;;;;;;;4.38;3.92;;;7.60;99.90;;;;;;5334576;26;21733;-67
2024/04/17 10:23:20;;;;;;;4.65;3.70;;;7.60;99.90;;;;;;5343762;26;20005;-68
2024/04/17 10:25:48;;;;;;;4.53;3.97;;;7.60;99.90;;;;;;5345839;26;20008;-68
2024/04/17 10:28:18;;;;;;;6.38;4.15;;;7.70;99.90;;;;;;5345580;26;20005;-67
2024/04/17 10:30:47;;;;;;;4.30;3.70;;;7.80;99.90;;;;;;5343152;26;20001;-67
2024/04/17 10:33:45;;;;;;;3.95;3.40;;;7.90;99.90;;;;;;5342092;26;20025;-68
2024/04/17 10:36:12;;;;;;;3.83;3.42;;;8.10;99.90;;;;;;5345600;26;20013;-67
2024/04/17 10:38:41;;;;;;;3.45;2.95;;;8.10;99.90;;;;;;5343623;26;20295;-67
2024/04/17 10:41:12;;;;;;;4.40;3.40;;;8.10;99.90;;;;;;5345751;26;20005;-67
2024/04/17 10:43:39;;;;;;;4.15;3.60;;;8.30;99.90;;;;;;5345368;26;20044;-68
2024/04/17 10:46:10;;;;;;;3.45;2.80;;;8.30;99.90;;;;;;5334427;26;20459;-67
2024/04/17 10:48:47;;;;;;;4.90;3.30;;;8.10;99.90;;;;;;5343705;26;20001;-67
2024/04/17 10:51:14;;;;;;;4.22;3.20;;;8.10;99.90;;;;;;5342433;26;20016;-67
2024/04/17 10:53:46;;;;;;;5.47;4.40;;;8.00;99.90;;;;;;5336998;26;20045;-67
2024/04/17 10:56:18;;;;;;;4.57;4.10;;;7.90;99.90;;;;;;5339379;26;20020;-67
2024/04/17 10:58:45;;;;;;;5.60;4.63;;;7.80;99.90;;;;;;5344508;26;20005;-67
2024/04/17 11:01:12;;;;;;;5.15;4.15;;;7.70;99.90;;;;;;5338761;26;20454;-67
2024/04/17 11:03:44;;;;;;;5.90;4.28;;;7.70;99.90;;;;;;5315119;26;20023;-67
2024/04/17 11:06:11;;;;;;;5.28;4.78;;;7.80;99.90;;;;;;5344902;26;20020;-67
2024/04/17 11:08:40;;;;;;;6.03;4.32;;;7.90;99.90;;;;;;5343501;26;20001;-67
2024/04/17 11:11:10;;;;;;;6.53;4.05;;;8.00;99.90;;;;;;5344214;26;20021;-67
2024/04/17 11:13:42;;;;;;;4.90;4.07;;;8.00;99.90;;;;;;5340140;26;19997;-67
2024/04/17 11:16:10;;;;;;;5.57;4.30;;;7.90;99.90;;;;;;5344954;26;20002;-67
2024/04/17 11:18:38;;;;;;;4.90;4.25;;;7.80;99.90;;;;;;5344133;26;20041;-67
2024/04/17 11:21:05;;;;;;;5.63;4.18;;;7.80;99.90;;;;;;5343553;26;20016;-67
2024/04/17 11:23:42;;;;;;;4.93;4.03;;;7.90;99.90;;;;;;5341397;26;20013;-67
2024/04/17 11:26:10;;;;;;;4.93;4.10;;;8.10;99.90;;;;;;5342663;26;20005;-67
2024/04/17 11:28:41;;;;;;;5.10;3.90;;;8.40;99.90;;;;;;5338762;26;20005;-67
2024/04/17 11:31:09;;;;;;;4.25;3.67;;;8.50;99.90;;;;;;5343282;26;20016;-67
2024/04/17 11:33:45;;;;;;;4.47;3.55;;;8.50;99.90;;;;;;5329513;26;20010;-67
2024/04/17 11:36:14;;;;;;;5.18;3.83;;;8.40;99.90;;;;;;5344292;26;20017;-67
2024/04/17 11:38:45;;;;;;;4.32;3.58;;;8.30;99.90;;;;;;5343746;26;20083;-67
2024/04/17 11:41:15;;;;;;;4.70;3.67;;;8.20;99.90;;;;;;5344772;26;20005;-67
2024/04/17 11:43:43;;;;;;;4.68;3.90;;;8.20;99.90;;;;;;5344681;26;20001;-67
2024/04/17 11:46:14;;;;;;;5.28;3.90;;;8.40;99.90;;;;;;5343495;26;20009;-67
2024/04/17 11:48:58;;;;;;;4.07;3.67;;;8.40;99.90;;;;;;5343132;26;20884;-68
2024/04/17 11:51:35;;;;;;;4.57;4.07;;;8.40;99.90;;;;;;5307846;26;20025;-67
2024/04/17 11:54:15;;;;;;;5.95;4.38;;;8.30;99.90;;;;;;5313126;26;20023;-67
2024/04/17 11:56:42;;;;;;;5.10;3.60;;;8.30;99.90;;;;;;5377163;26;20475;-67
2024/04/17 11:59:14;;;;;;;5.88;3.92;;;8.10;99.90;;;;;;5341150;26;20020;-66
2024/04/17 12:01:42;;;;;;;4.47;3.80;;;8.00;99.90;;;;;;5303325;26;20010;-67
2024/04/17 12:04:10;;;;;;;4.43;3.20;;;8.00;99.90;;;;;;5342273;26;20005;-67
2024/04/17 12:06:38;;;;;;;5.22;3.80;;;8.20;99.90;;;;;;5340405;26;20399;-66
2024/04/17 12:09:12;;;;;;;6.40;4.30;;;8.20;99.90;;;;;;5341938;26;20041;-66
2024/04/17 12:11:45;;;;;;;6.00;4.60;;;8.00;99.90;;;;;;5314605;26;20019;-66
2024/04/17 12:14:13;;;;;;;5.10;4.18;;;7.70;99.90;;;;;;5340646;26;20037;-67
2024/04/17 12:16:41;;;;;;;3.38;2.08;;;7.70;99.90;;;;;;5311848;26;20016;-66
2024/04/17 12:19:08;;;;;;;3.35;1.85;;;7.30;99.90;;;;;;5351293;26;20020;-66
2024/04/17 12:21:35;;;;;;;2.58;1.92;;;6.70;99.90;;;;;;5353573;26;20019;-69
2024/04/17 12:24:16;;;;;;;2.28;1.90;;;5.80;99.90;;;;;;5342084;26;20020;-69
2024/04/17 12:26:50;;;;;;;3.10;1.92;;;5.10;99.90;;;;;;5343139;26;20476;-67
2024/04/17 12:29:20;;;;;;;;;;;4.50;99.90;;;;;;5338638;26;20020;-66
2024/04/17 12:31:48;;;;;;;3.15;2.42;;;4.30;99.90;;;;;;5370981;26;20469;-67
2024/04/17 12:34:15;;;;;;;2.65;2.00;;;4.30;99.90;;;;;;5342517;26;20005;-67
2024/04/17 12:36:42;;;;;;;2.13;1.75;;;4.50;99.90;;;;;;5342412;26;20371;-67
2024/04/17 12:39:10;;;;;;;2.55;2.00;;;4.70;99.90;;;;;;5341436;26;20033;-67
2024/04/17 12:41:41;;;;;;;3.15;2.67;;;5.00;99.90;;;;;;5342506;26;20001;-68
2024/04/17 12:44:19;;;;;;;3.70;2.88;;;5.10;99.90;;;;;;5348138;26;20001;-69
2024/04/17 12:46:59;;;;;;;4.97;2.90;;;5.30;99.90;;;;;;5366533;26;20473;-68
2024/04/17 12:49:29;;;;;;;3.90;2.50;;;5.40;99.90;;;;;;5331054;26;20004;-70
2024/04/17 12:51:57;;;;;;;3.45;2.80;;;5.50;99.90;;;;;;5344862;26;20017;-68
2024/04/17 12:54:41;;;;;;;2.90;2.50;;;5.50;99.90;;;;;;5344075;26;20496;-71
2024/04/17 12:57:17;;;;;;;4.22;2.55;;;5.50;99.90;;;;;;5348256;26;20005;-69
2024/04/17 12:59:51;;;;;;;2.15;1.88;;;5.50;99.90;;;;;;5347332;26;20008;-69
2024/04/17 13:02:22;;;;;;;3.97;2.00;;;5.60;99.90;;;;;;5342882;26;20006;-67
2024/04/17 13:05:03;;;;;;;2.45;1.80;;;5.60;99.90;;;;;;5346898;26;20035;-69